Time;durP1;ratioP1;P1;durP2;ratioP2;P2;SDS_P1;SDS_P2;PMS_P1;PMS_P2;Temp;Humidity;BMP_temperature;BMP_pressure;BME280_temperature;BME280_humidity;BME280_pressure;Samples;Min_cycle;Max_cycle;Signal;HPM_P1;HPM_P2
2021/08/13 00:00:00;;;;;;;8.80;5.95;;;;;;;22.48;35.80;101502.63;2615412;54;20038;-73
2021/08/13 00:02:41;;;;;;;8.23;5.30;;;;;;;22.44;35.80;101513.31;2664598;36;20038;-73
2021/08/13 00:05:12;;;;;;;7.00;5.40;;;;;;;22.45;36.00;101511.38;2615611;54;20050;-73
2021/08/13 00:07:43;;;;;;;7.13;5.50;;;;;;;22.40;35.79;101511.09;2639270;36;20090;-73
2021/08/13 00:10:13;;;;;;;8.13;5.60;;;;;;;22.39;36.11;101510.25;2615925;39;20486;-73
2021/08/13 00:12:45;;;;;;;9.30;5.93;;;;;;;22.39;35.90;101518.63;2640511;36;20031;-73
2021/08/13 00:15:14;;;;;;;6.95;5.70;;;;;;;22.35;35.81;101525.63;2615465;54;20073;-72
2021/08/13 00:17:44;;;;;;;10.40;6.13;;;;;;;22.33;36.21;101530.53;2663687;36;20038;-73
2021/08/13 00:20:15;;;;;;;8.40;5.63;;;;;;;22.34;35.96;101525.81;2615229;54;20042;-73
2021/08/13 00:22:45;;;;;;;8.73;5.75;;;;;;;22.30;36.16;101518.91;2640013;36;20573;-73
2021/08/13 00:25:16;;;;;;;8.32;5.57;;;;;;;22.30;36.24;101532.84;2615572;39;20450;-73
2021/08/13 00:27:47;;;;;;;9.70;5.85;;;;;;;22.29;36.06;101540.34;2640013;36;20039;-73
2021/08/13 00:30:21;;;;;;;8.73;5.82;;;;;;;22.25;36.81;101539.00;2615013;47;20058;-73
2021/08/13 00:32:51;;;;;;;8.95;5.60;;;;;;;22.23;36.50;101527.19;2639992;36;20035;-73
2021/08/13 00:35:22;;;;;;;9.80;6.07;;;;;;;22.21;36.66;101529.31;2615468;39;20560;-73
2021/08/13 00:37:52;;;;;;;8.25;5.97;;;;;;;22.17;36.47;101534.34;2639611;36;20076;-73
2021/08/13 00:40:22;;;;;;;8.05;5.90;;;;;;;22.17;36.44;101539.06;2615025;47;20041;-73
2021/08/13 00:42:54;;;;;;;9.73;6.47;;;;;;;22.16;36.53;101549.34;2640374;36;20038;-73
2021/08/13 00:45:24;;;;;;;9.30;6.20;;;;;;;22.12;36.72;101558.28;2615116;54;20125;-73
2021/08/13 00:48:04;;;;;;;8.70;5.50;;;;;;;22.10;36.75;101546.44;2639312;36;20045;-73
2021/08/13 00:50:44;;;;;;;8.23;5.32;;;;;;;22.08;36.26;101554.13;2614723;47;20041;-73
2021/08/13 00:53:14;;;;;;;6.70;5.45;;;;;;;22.07;36.88;101547.69;2640008;36;20034;-73
2021/08/13 00:55:51;;;;;;;8.63;6.10;;;;;;;22.07;36.49;101547.69;2614931;39;20841;-74
2021/08/13 00:58:37;;;;;;;8.30;6.00;;;;;;;22.05;36.87;101544.25;2640164;36;20154;-73
2021/08/13 01:01:25;;;;;;;8.38;5.88;;;;;;;22.01;37.16;101536.47;2616509;54;20058;-73
2021/08/13 01:03:57;;;;;;;8.85;6.43;;;;;;;21.98;37.27;101543.28;2640567;36;20061;-73
2021/08/13 01:06:30;;;;;;;9.18;6.60;;;;;;;21.99;37.86;101536.63;2615068;47;20036;-72
2021/08/13 01:09:00;;;;;;;10.93;6.00;;;;;;;21.97;37.28;101538.78;2640890;36;20768;-73
2021/08/13 01:11:40;;;;;;;;;;;;;;;21.68;37.57;101539.59;2615899;54;20126;-73
2021/08/13 01:14:20;;;;;;;8.00;5.20;;;;;;;21.92;37.13;101532.03;2640825;36;19946;-74
2021/08/13 01:16:53;;;;;;;7.30;5.25;;;;;;;21.92;37.20;101532.91;2615307;54;20034;-74
2021/08/13 01:19:30;;;;;;;7.90;5.57;;;;;;;21.92;37.60;101530.09;2640693;36;20061;-74
2021/08/13 01:22:03;;;;;;;8.80;5.75;;;;;;;21.90;37.19;101535.03;2615556;54;20030;-75
2021/08/13 01:24:36;;;;;;;8.07;5.70;;;;;;;21.88;37.40;101542.69;2633494;36;20034;-74
2021/08/13 01:27:10;;;;;;;8.48;5.78;;;;;;;21.87;37.27;101546.53;2640695;31;20510;-74
2021/08/13 01:29:51;;;;;;;6.82;5.15;;;;;;;21.87;37.20;101548.47;2614542;54;20030;-73
2021/08/13 01:32:38;;;;;;;8.02;5.55;;;;;;;21.85;37.57;101553.34;2640436;36;20495;-73
2021/08/13 01:35:13;;;;;;;7.28;5.38;;;;;;;21.82;37.28;101551.78;2613971;49;20565;-73
2021/08/13 01:37:48;;;;;;;9.75;6.07;;;;;;;21.83;37.21;101547.97;2639903;36;20031;-73
2021/08/13 01:40:21;;;;;;;6.95;5.30;;;;;;;21.80;37.85;101545.56;2614692;54;20030;-73
2021/08/13 01:42:56;;;;;;;8.77;5.88;;;;;;;21.80;37.79;101540.00;2638998;36;20069;-73
2021/08/13 01:45:31;;;;;;;6.78;5.50;;;;;;;21.79;38.31;101541.06;2614850;47;20637;-73
2021/08/13 01:48:05;;;;;;;7.90;5.50;;;;;;;21.77;37.85;101543.16;2639481;36;20059;-73
2021/08/13 01:50:40;;;;;;;8.50;6.05;;;;;;;21.72;37.99;101532.59;2614659;47;20035;-73
2021/08/13 01:53:11;;;;;;;6.93;5.30;;;;;;;21.72;38.05;101537.31;2640495;36;20039;-73
2021/08/13 01:55:42;;;;;;;8.77;5.68;;;;;;;21.70;37.69;101529.13;2614636;54;20034;-73
2021/08/13 01:58:14;;;;;;;7.65;5.13;;;;;;;21.68;38.09;101531.22;2639438;36;20042;-73
2021/08/13 02:00:47;;;;;;;8.50;5.32;;;;;;;21.68;38.12;101541.50;2614700;47;20069;-73
2021/08/13 02:03:19;;;;;;;7.78;5.43;;;;;;;21.67;38.22;101542.56;2640529;36;20443;-73
2021/08/13 02:05:50;;;;;;;8.32;5.57;;;;;;;21.65;38.53;101545.56;2614291;54;20042;-73
2021/08/13 02:08:20;;;;;;;7.43;5.20;;;;;;;21.62;38.39;101545.06;2640568;36;20770;-73
2021/08/13 02:10:51;;;;;;;9.00;5.97;;;;;;;21.61;38.45;101546.09;2614801;54;20034;-73
2021/08/13 02:13:26;;;;;;;9.13;6.00;;;;;;;21.58;38.53;101540.91;2640148;36;20127;-73
2021/08/13 02:16:02;;;;;;;7.03;5.30;;;;;;;21.60;38.87;101544.38;2614024;47;20534;-74
2021/08/13 02:18:37;;;;;;;7.43;5.32;;;;;;;21.56;38.82;101545.81;2638277;36;20030;-74
2021/08/13 02:21:13;;;;;;;8.23;5.88;;;;;;;21.54;38.57;101540.41;2614186;54;20041;-74
2021/08/13 02:23:44;;;;;;;8.68;5.72;;;;;;;21.51;38.14;101531.53;2639776;36;20030;-73
2021/08/13 02:26:15;;;;;;;8.38;5.45;;;;;;;21.50;38.67;101538.16;2614306;54;20549;-74
2021/08/13 02:28:50;;;;;;;8.05;5.50;;;;;;;21.48;38.65;101527.25;2640561;36;20426;-74
2021/08/13 02:31:23;;;;;;;7.40;5.25;;;;;;;21.48;38.51;101530.03;2614380;54;20034;-73
2021/08/13 02:33:54;;;;;;;8.40;5.43;;;;;;;21.49;38.94;101530.88;2640209;36;20132;-73
2021/08/13 02:36:32;;;;;;;6.82;5.20;;;;;;;21.49;38.57;101530.88;2614044;54;20038;-73
2021/08/13 02:39:04;;;;;;;7.00;5.22;;;;;;;21.45;38.61;101536.81;2640197;36;20058;-73
2021/08/13 02:41:38;;;;;;;8.07;4.85;;;;;;;21.44;38.94;101535.09;2614592;54;20143;-74
2021/08/13 02:44:10;;;;;;;8.85;5.35;;;;;;;21.44;38.14;101534.22;2640322;36;20061;-74
2021/08/13 02:46:45;;;;;;;8.53;5.93;;;;;;;21.43;39.18;101532.47;2615026;54;20073;-74
2021/08/13 02:49:16;;;;;;;8.57;5.15;;;;;;;21.43;38.22;101525.00;2640870;36;20056;-74
2021/08/13 02:51:48;;;;;;;7.47;5.40;;;;;;;21.40;38.59;101528.19;2616741;39;20414;-73
2021/08/13 02:54:25;;;;;;;7.38;4.88;;;;;;;21.42;38.95;101531.63;2642807;36;20034;-73
2021/08/13 02:56:57;;;;;;;8.35;5.40;;;;;;;21.39;38.69;101529.22;2619568;47;20035;-74
2021/08/13 02:59:31;;;;;;;8.80;5.67;;;;;;;21.37;39.23;101530.47;2633745;36;20035;-74
2021/08/13 03:02:05;;;;;;;7.97;5.22;;;;;;;21.35;39.26;101525.06;2640452;36;20291;-74
2021/08/13 03:04:42;;;;;;;7.88;5.47;;;;;;;21.33;39.14;101526.31;2615291;54;20042;-73
2021/08/13 03:07:15;;;;;;;7.90;5.90;;;;;;;21.29;39.00;101527.75;2641093;36;20530;-74
2021/08/13 03:09:45;;;;;;;9.75;6.00;;;;;;;21.28;39.25;101523.22;2615461;47;20066;-73
2021/08/13 03:12:16;;;;;;;8.88;5.70;;;;;;;21.24;39.11;101519.09;2641082;36;20038;-74
2021/08/13 03:14:48;;;;;;;8.02;5.57;;;;;;;21.23;39.24;101518.25;2615345;54;20069;-74
2021/08/13 03:17:19;;;;;;;7.90;5.63;;;;;;;21.21;39.13;101516.69;2662211;36;20038;-73
2021/08/13 03:19:50;;;;;;;8.25;5.68;;;;;;;21.20;39.25;101514.94;2614781;54;20161;-73
2021/08/13 03:22:22;;;;;;;8.10;5.97;;;;;;;21.15;39.24;101506.31;2640776;36;20089;-73
2021/08/13 03:24:53;;;;;;;8.70;5.50;;;;;;;21.14;39.41;101507.34;2615548;54;20038;-74
2021/08/13 03:27:25;;;;;;;8.07;5.57;;;;;;;21.14;39.87;101507.34;2640608;36;20030;-74
2021/08/13 03:29:55;;;;;;;8.35;5.47;;;;;;;21.12;39.52;101515.00;2615486;54;20064;-73
2021/08/13 03:32:24;;;;;;;7.43;5.65;;;;;;;21.12;39.58;101509.44;2641559;36;20030;-74
2021/08/13 03:34:56;;;;;;;7.65;5.40;;;;;;;21.13;39.53;101502.84;2615026;54;20038;-74
2021/08/13 03:37:26;;;;;;;7.70;5.45;;;;;;;21.08;39.33;101506.16;2640589;36;20041;-73
2021/08/13 03:39:55;;;;;;;8.57;6.10;;;;;;;21.07;39.75;101498.91;2615057;54;20041;-73
2021/08/13 03:42:25;;;;;;;9.35;6.00;;;;;;;21.06;39.87;101497.16;2641425;36;20555;-73
2021/08/13 03:44:56;;;;;;;8.10;5.70;;;;;;;21.04;39.82;101499.25;2614353;54;20035;-73
2021/08/13 03:47:25;;;;;;;7.80;5.57;;;;;;;21.03;40.07;101505.88;2640487;36;20038;-73
2021/08/13 03:49:57;;;;;;;8.73;6.18;;;;;;;21.02;40.35;101499.44;2614912;54;20688;-74
2021/08/13 03:52:27;;;;;;;7.13;5.55;;;;;;;20.98;39.77;101505.56;2641225;36;20807;-73
2021/08/13 03:54:57;;;;;;;8.63;5.53;;;;;;;20.97;39.63;101498.28;2615236;54;20080;-73
2021/08/13 03:57:33;;;;;;;7.65;5.05;;;;;;;20.96;39.78;101500.19;2640417;36;20034;-74
2021/08/13 04:00:04;;;;;;;9.48;5.20;;;;;;;20.95;39.63;101503.16;2615060;54;20039;-74
2021/08/13 04:02:46;;;;;;;7.38;5.22;;;;;;;20.91;39.80;101510.97;2640940;36;20027;-73
2021/08/13 04:05:23;;;;;;;7.55;5.15;;;;;;;20.96;39.89;101504.88;2615035;54;20034;-74
2021/08/13 04:07:55;;;;;;;6.93;4.93;;;;;;;20.94;39.54;101515.31;2639930;36;20042;-74
2021/08/13 04:10:26;;;;;;;8.75;5.40;;;;;;;20.93;39.58;101522.78;2614952;54;20039;-74
2021/08/13 04:12:56;;;;;;;7.03;5.00;;;;;;;20.93;39.77;101516.38;2640858;36;20137;-74
2021/08/13 04:15:28;;;;;;;7.55;4.95;;;;;;;20.94;39.60;101529.22;2615010;54;20061;-73
2021/08/13 04:18:00;;;;;;;7.00;5.22;;;;;;;20.92;39.68;101534.09;2660435;36;20035;-74
2021/08/13 04:20:33;;;;;;;8.27;4.88;;;;;;;20.91;39.73;101536.00;2614498;54;20034;-74
2021/08/13 04:23:06;;;;;;;7.03;4.75;;;;;;;20.91;39.67;101532.41;2641214;36;20038;-74
2021/08/13 04:25:36;;;;;;;7.82;5.18;;;;;;;20.91;39.98;101530.44;2614888;49;20076;-74
2021/08/13 04:28:06;;;;;;;7.53;5.20;;;;;;;20.91;39.54;101537.97;2640962;36;20041;-73
2021/08/13 04:30:38;;;;;;;8.30;5.32;;;;;;;20.88;39.52;101543.84;2614588;47;20048;-74
2021/08/13 04:33:10;;;;;;;7.85;5.63;;;;;;;20.91;39.63;101543.53;2641098;36;20027;-73
2021/08/13 04:35:47;;;;;;;9.23;5.00;;;;;;;20.90;39.63;101539.88;2614250;47;20059;-73
2021/08/13 04:38:17;;;;;;;7.25;5.55;;;;;;;20.88;39.98;101535.50;2640948;36;20080;-73
2021/08/13 04:40:47;;;;;;;8.95;5.47;;;;;;;20.87;40.18;101531.84;2615010;54;20078;-74
2021/08/13 04:43:17;;;;;;;7.20;5.13;;;;;;;20.87;40.02;101530.97;2641301;36;20601;-73
2021/08/13 04:45:46;;;;;;;7.68;5.10;;;;;;;20.86;39.71;101526.47;2614351;54;20057;-74
2021/08/13 04:48:16;;;;;;;8.18;4.78;;;;;;;20.83;39.70;101524.91;2640670;36;20058;-74
2021/08/13 04:50:48;;;;;;;6.72;5.25;;;;;;;20.85;40.07;101531.16;2614040;47;20034;-74
2021/08/13 04:53:21;;;;;;;7.68;5.70;;;;;;;20.82;40.25;101537.09;2640480;36;20145;-74
2021/08/13 04:55:51;;;;;;;7.85;5.40;;;;;;;20.81;40.12;101529.81;2613043;47;20039;-75
2021/08/13 04:58:21;;;;;;;8.82;5.40;;;;;;;20.80;40.28;101521.66;2640915;36;20038;-74
2021/08/13 05:00:52;;;;;;;7.32;5.47;;;;;;;20.77;40.40;101514.53;2614308;54;20034;-74
2021/08/13 05:03:22;;;;;;;7.45;5.32;;;;;;;20.77;40.38;101511.75;2641476;36;20041;-74
2021/08/13 05:05:54;;;;;;;8.48;5.70;;;;;;;20.79;40.62;101522.69;2613790;47;20089;-73
2021/08/13 05:08:24;;;;;;;7.95;5.75;;;;;;;20.76;40.48;101521.13;2641224;36;20034;-73
2021/08/13 05:10:57;;;;;;;7.63;6.20;;;;;;;20.76;40.50;101523.03;2614032;47;20034;-73
2021/08/13 05:13:28;;;;;;;8.00;5.88;;;;;;;20.75;40.64;101519.41;2639462;36;20058;-74
2021/08/13 05:15:58;;;;;;;8.65;5.30;;;;;;;20.74;40.61;101530.72;2614252;47;20034;-73
2021/08/13 05:18:29;;;;;;;7.75;5.47;;;;;;;20.75;40.43;101533.28;2640228;36;20034;-75
2021/08/13 05:21:02;;;;;;;8.60;5.47;;;;;;;20.78;40.50;101534.84;2613601;54;20035;-73
2021/08/13 05:23:32;;;;;;;8.32;5.80;;;;;;;20.75;40.54;101533.28;2641657;36;20466;-73
2021/08/13 05:26:03;;;;;;;7.35;5.30;;;;;;;20.78;40.86;101530.16;2614167;54;20063;-73
2021/08/13 05:28:37;;;;;;;8.70;6.00;;;;;;;20.80;41.16;101544.75;2641559;36;20053;-74
2021/08/13 05:31:07;;;;;;;7.88;5.47;;;;;;;20.82;41.08;101539.88;2614382;47;20057;-73
2021/08/13 05:33:37;;;;;;;8.40;5.63;;;;;;;20.86;41.15;101540.38;2639772;36;20659;-74
2021/08/13 05:36:09;;;;;;;8.63;6.20;;;;;;;20.92;41.66;101534.09;2611617;54;20038;-74
2021/08/13 05:38:39;;;;;;;9.93;6.13;;;;;;;20.93;41.34;101541.41;2641271;36;20038;-73
2021/08/13 05:41:09;;;;;;;6.90;5.10;;;;;;;20.98;41.36;101550.94;2612274;54;20545;-73
2021/08/13 05:43:40;;;;;;;8.20;5.53;;;;;;;21.03;41.45;101551.25;2640214;36;20038;-75
2021/08/13 05:46:11;;;;;;;7.40;5.38;;;;;;;21.06;41.35;101553.66;2612452;47;20044;-74
2021/08/13 05:48:41;;;;;;;10.80;5.57;;;;;;;21.12;41.32;101545.63;2640316;36;20038;-74
2021/08/13 05:51:16;;;;;;;8.05;5.32;;;;;;;21.17;41.22;101554.25;2613397;39;20415;-74
2021/08/13 05:53:46;;;;;;;9.25;6.25;;;;;;;21.18;41.27;101547.66;2639984;36;20050;-75
2021/08/13 05:56:16;;;;;;;8.27;5.53;;;;;;;21.22;41.28;101546.25;2613407;47;20034;-75
2021/08/13 05:58:46;;;;;;;8.70;5.05;;;;;;;21.25;41.12;101545.84;2640775;36;20566;-74
2021/08/13 06:01:17;;;;;;;8.38;5.20;;;;;;;21.25;41.02;101555.06;2613718;48;20034;-74
2021/08/13 06:03:47;;;;;;;7.63;5.38;;;;;;;21.28;41.12;101545.50;2640348;36;20629;-74
2021/08/13 06:06:18;;;;;;;8.73;5.35;;;;;;;21.32;41.33;101552.44;2613723;47;20589;-74
2021/08/13 06:08:49;;;;;;;;;;;;;;;21.03;41.55;101562.38;2640990;36;20065;-74
2021/08/13 06:11:20;;;;;;;9.35;5.15;;;;;;;21.30;41.51;101560.97;2613771;51;19950;-74
2021/08/13 06:13:50;;;;;;;7.50;4.97;;;;;;;21.35;41.35;101565.94;2640695;36;20039;-74
2021/08/13 06:16:21;;;;;;;8.32;5.47;;;;;;;21.37;41.02;101573.06;2613317;48;20034;-74
2021/08/13 06:18:51;;;;;;;7.38;5.00;;;;;;;21.39;41.23;101587.69;2640709;36;20034;-74
2021/08/13 06:21:23;;;;;;;7.85;5.38;;;;;;;21.44;41.54;101587.09;2614228;39;20402;-74
2021/08/13 06:23:54;;;;;;;7.72;5.00;;;;;;;21.46;41.58;101596.13;2642093;36;20438;-73
2021/08/13 06:26:24;;;;;;;7.28;5.40;;;;;;;21.49;41.58;101594.91;2614193;46;20644;-72
2021/08/13 06:28:54;;;;;;;7.55;4.88;;;;;;;21.51;41.21;101588.09;2641535;36;20142;-73
2021/08/13 06:31:25;;;;;;;6.97;4.80;;;;;;;21.55;41.46;101595.03;2615461;54;20038;-72
2021/08/13 06:33:55;;;;;;;9.95;5.60;;;;;;;21.59;41.99;101601.09;2641552;36;20022;-73
2021/08/13 06:36:28;;;;;;;7.60;5.70;;;;;;;21.63;42.07;101602.47;2613792;47;20041;-72
2021/08/13 06:38:59;;;;;;;7.07;5.13;;;;;;;21.64;41.83;101599.50;2641900;36;20034;-73
2021/08/13 06:41:29;;;;;;;7.22;5.45;;;;;;;21.70;41.52;101606.25;2614999;54;20051;-73
2021/08/13 06:44:25;;;;;;;8.95;5.53;;;;;;;21.72;41.82;101613.34;2634777;36;20042;-73
2021/08/13 06:46:54;;;;;;;7.55;5.88;;;;;;;21.78;41.96;101623.75;2614146;47;20034;-73
2021/08/13 06:49:25;;;;;;;7.80;5.47;;;;;;;21.82;42.06;101610.28;2632642;36;20034;-73
2021/08/13 06:51:56;;;;;;;7.72;5.28;;;;;;;21.87;41.85;101606.94;2614598;54;20141;-74
2021/08/13 06:54:28;;;;;;;8.70;5.80;;;;;;;21.89;42.05;101605.72;2632460;36;20046;-73
2021/08/13 06:56:58;;;;;;;7.50;5.57;;;;;;;21.95;41.90;101604.09;2615014;39;20441;-73
2021/08/13 06:59:29;;;;;;;9.50;6.27;;;;;;;21.97;42.06;101610.34;2633120;36;20072;-73
2021/08/13 07:02:00;;;;;;;7.45;5.57;;;;;;;22.03;41.91;101610.44;2620855;36;20038;-73
2021/08/13 07:04:32;;;;;;;9.13;5.93;;;;;;;22.05;42.19;101607.47;2632858;36;20039;-73
2021/08/13 07:07:03;;;;;;;10.60;6.13;;;;;;;22.12;42.22;101612.09;2639255;36;20567;-73
2021/08/13 07:09:33;;;;;;;11.18;7.10;;;;;;;22.15;42.16;101614.47;2614618;54;20065;-72
2021/08/13 07:12:03;;;;;;;10.80;7.63;;;;;;;22.20;41.94;101613.94;2641563;36;20034;-73
2021/08/13 07:14:34;;;;;;;10.80;7.18;;;;;;;22.25;41.91;101607.78;2614776;39;20422;-73
2021/08/13 07:17:04;;;;;;;9.05;6.30;;;;;;;22.29;42.03;101614.72;2641469;36;20037;-73
2021/08/13 07:19:35;;;;;;;10.27;6.85;;;;;;;22.32;41.99;101609.63;2614646;54;20037;-74
2021/08/13 07:22:07;;;;;;;10.63;7.15;;;;;;;22.38;42.41;101620.03;2641896;36;20034;-72
2021/08/13 07:24:37;;;;;;;;;;;;;;;22.12;42.77;101622.38;2614813;47;20034;-73
2021/08/13 07:27:07;;;;;;;9.18;6.22;;;;;;;22.41;42.37;101621.53;2640598;36;19946;-74
2021/08/13 07:29:37;;;;;;;9.27;7.20;;;;;;;22.50;42.17;101615.69;2614894;39;20422;-74
2021/08/13 07:32:08;;;;;;;10.75;7.25;;;;;;;22.57;41.84;101625.00;2641505;36;20129;-73
2021/08/13 07:34:38;;;;;;;11.40;7.75;;;;;;;22.64;42.53;101635.41;2618858;39;20453;-74
2021/08/13 07:37:10;;;;;;;12.90;7.95;;;;;;;22.73;41.69;101634.22;2677657;36;20161;-72
2021/08/13 07:39:43;;;;;;;10.73;7.82;;;;;;;22.76;41.98;101629.13;2612897;47;20034;-73
2021/08/13 07:42:13;;;;;;;11.48;8.15;;;;;;;22.82;41.86;101638.63;2642319;36;20038;-74
2021/08/13 07:44:45;;;;;;;12.57;8.07;;;;;;;22.87;41.70;101645.41;2614276;47;20068;-73
2021/08/13 07:47:16;;;;;;;13.48;8.70;;;;;;;22.98;41.88;101648.75;2642102;36;20111;-73
2021/08/13 07:49:49;;;;;;;13.65;8.63;;;;;;;23.04;41.61;101648.84;2614244;47;20042;-73
2021/08/13 07:52:21;;;;;;;11.48;7.65;;;;;;;23.13;41.49;101635.66;2641991;36;20027;-74
2021/08/13 07:54:51;;;;;;;13.63;8.77;;;;;;;23.16;41.03;101660.34;2616171;47;20078;-74
2021/08/13 07:57:22;;;;;;;11.70;8.98;;;;;;;23.25;40.98;101653.59;2641992;36;20019;-73
2021/08/13 07:59:52;;;;;;;13.35;9.18;;;;;;;23.30;40.70;101662.28;2615798;47;20034;-74
2021/08/13 08:02:24;;;;;;;;;;;;;;;23.04;41.53;101679.56;2643472;36;20031;-74
2021/08/13 08:04:54;;;;;;;12.30;8.50;;;;;;;23.33;40.35;101676.69;2615764;54;20046;-74
2021/08/13 08:07:25;;;;;;;12.88;9.15;;;;;;;23.42;40.78;101687.72;2642874;36;20106;-75
2021/08/13 08:09:57;;;;;;;13.15;9.23;;;;;;;23.45;40.53;101692.94;2614305;54;20557;-74
2021/08/13 08:12:26;;;;;;;12.50;8.95;;;;;;;23.44;40.53;101686.47;2643276;36;20030;-73
2021/08/13 08:14:56;;;;;;;14.20;9.77;;;;;;;23.47;40.28;101696.41;2614005;54;20045;-74
2021/08/13 08:17:26;;;;;;;14.43;10.32;;;;;;;23.49;40.49;101694.28;2642445;36;20414;-74
2021/08/13 08:19:56;;;;;;;15.15;10.57;;;;;;;23.50;40.40;101702.47;2614198;54;20073;-73
2021/08/13 08:22:27;;;;;;;15.43;11.23;;;;;;;23.55;40.18;101710.28;2642676;36;20035;-73
2021/08/13 08:24:58;;;;;;;16.87;11.83;;;;;;;23.52;40.61;101699.47;2614945;39;20647;-74
2021/08/13 08:27:27;;;;;;;17.95;12.27;;;;;;;23.56;40.18;101710.06;2643127;36;20034;-74
2021/08/13 08:29:57;;;;;;;17.42;12.25;;;;;;;23.58;40.27;101719.09;2613824;54;20050;-74
2021/08/13 08:32:27;;;;;;;15.73;11.88;;;;;;;23.61;40.53;101713.13;2643110;36;20026;-73
2021/08/13 08:34:57;;;;;;;15.52;12.20;;;;;;;23.63;40.10;101712.94;2614380;54;20557;-73
2021/08/13 08:37:29;;;;;;;16.38;12.25;;;;;;;23.67;39.97;101714.25;2642700;36;20060;-73
2021/08/13 08:39:59;;;;;;;18.20;13.80;;;;;;;23.65;40.49;101716.38;2614144;54;20042;-73
2021/08/13 08:42:28;;;;;;;18.25;13.43;;;;;;;23.68;40.31;101718.78;2642666;36;20038;-75
2021/08/13 08:44:58;;;;;;;14.35;10.95;;;;;;;23.68;40.27;101719.66;2614648;54;20065;-74
2021/08/13 08:47:29;;;;;;;16.10;11.40;;;;;;;23.71;40.52;101729.56;2642151;36;20034;-74
2021/08/13 08:49:59;;;;;;;15.10;11.68;;;;;;;23.70;40.07;101730.63;2614874;54;20049;-75
2021/08/13 08:52:31;;;;;;;16.33;12.02;;;;;;;23.74;39.90;101733.88;2643765;36;20037;-75
2021/08/13 08:55:01;;;;;;;17.23;12.10;;;;;;;23.69;40.41;101745.66;2614695;54;20517;-74
2021/08/13 08:57:34;;;;;;;17.10;11.50;;;;;;;23.74;39.98;101759.03;2642433;36;20034;-73
2021/08/13 09:00:05;;;;;;;16.58;11.40;;;;;;;23.74;40.36;101753.44;2614789;54;20046;-75
2021/08/13 09:02:35;;;;;;;14.63;11.07;;;;;;;23.76;40.32;101746.59;2642833;36;20609;-74
2021/08/13 09:05:06;;;;;;;14.80;10.25;;;;;;;23.79;40.49;101745.34;2613803;54;20042;-74
2021/08/13 09:07:37;;;;;;;14.50;10.63;;;;;;;23.82;39.92;101740.22;2640430;36;20041;-75
2021/08/13 09:10:10;;;;;;;13.55;10.27;;;;;;;23.83;40.35;101747.53;2614266;54;20171;-75
2021/08/13 09:12:41;;;;;;;14.38;11.00;;;;;;;23.89;39.81;101754.25;2642327;36;20652;-74
2021/08/13 09:15:30;;;;;;;13.70;9.50;;;;;;;23.91;39.58;101747.41;2614605;39;20454;-74
2021/08/13 09:18:13;;;;;;;11.18;7.95;;;;;;;23.94;39.67;101737.75;2643334;36;20034;-82
2021/08/13 09:20:44;;;;;;;12.75;8.30;;;;;;;23.95;39.80;101747.88;2617203;54;20061;-78
2021/08/13 09:23:30;;;;;;;10.48;7.50;;;;;;;24.00;39.84;101753.72;2645885;36;20034;-78
2021/08/13 09:26:03;;;;;;;12.77;8.68;;;;;;;24.03;39.68;101765.38;2616875;54;20050;-81
2021/08/13 09:28:53;;;;;;;9.52;6.60;;;;;;;24.08;39.93;101769.53;2682672;36;20057;-79
2021/08/13 09:31:42;;;;;;;10.40;7.85;;;;;;;24.11;39.43;101770.00;2613770;47;20047;-76
2021/08/13 09:34:14;;;;;;;12.73;8.85;;;;;;;24.18;39.58;101773.72;2642115;36;20561;-77
2021/08/13 09:36:56;;;;;;;10.55;7.18;;;;;;;24.22;39.29;101782.56;2614596;54;20053;-75
2021/08/13 09:39:29;;;;;;;13.55;7.80;;;;;;;24.22;39.35;101772.25;2663173;36;20034;-79
2021/08/13 09:42:01;;;;;;;11.00;7.55;;;;;;;24.27;39.24;101777.25;2619887;36;20051;-79
2021/08/13 09:44:33;;;;;;;9.65;6.85;;;;;;;24.27;39.32;101772.53;2632797;36;20117;-76
2021/08/13 09:47:04;;;;;;;11.35;7.28;;;;;;;24.30;39.26;101768.44;2642273;36;20562;-76
2021/08/13 09:49:36;;;;;;;9.23;6.95;;;;;;;24.33;39.19;101768.06;2614378;54;20041;-75
2021/08/13 09:52:13;;;;;;;11.20;7.28;;;;;;;24.38;38.99;101755.19;2642413;36;20378;-75
2021/08/13 09:54:45;;;;;;;8.43;6.15;;;;;;;24.43;39.01;101762.97;2613835;54;20572;-78
2021/08/13 09:57:17;;;;;;;9.75;6.85;;;;;;;24.45;39.02;101761.69;2641936;36;20050;-75
2021/08/13 10:00:01;;;;;;;10.30;6.50;;;;;;;24.52;39.21;101752.50;2614034;54;20134;-77
2021/08/13 10:02:42;;;;;;;10.10;6.75;;;;;;;24.58;38.85;101751.69;2646289;36;20018;-79
2021/08/13 10:05:21;;;;;;;9.45;6.43;;;;;;;24.66;38.77;101758.03;2617806;47;20613;-77
2021/08/13 10:07:52;;;;;;;9.20;6.50;;;;;;;24.71;39.40;101751.81;2646167;36;20026;-81
2021/08/13 10:10:29;;;;;;;8.48;6.22;;;;;;;24.80;39.00;101750.59;2617656;47;20034;-80
2021/08/13 10:13:01;;;;;;;7.93;5.75;;;;;;;24.88;38.77;101752.34;2646473;36;20075;-80
2021/08/13 10:15:34;;;;;;;7.70;5.38;;;;;;;24.97;38.31;101753.91;2617811;47;20023;-79
2021/08/13 10:18:09;;;;;;;7.03;5.07;;;;;;;25.04;38.27;101754.81;2646552;36;20026;-80
2021/08/13 10:20:41;;;;;;;6.75;5.07;;;;;;;25.07;38.32;101732.88;2618239;39;20504;-79
2021/08/13 10:23:12;;;;;;;7.70;5.22;;;;;;;25.16;37.70;101741.97;2646715;36;20026;-80
2021/08/13 10:25:46;;;;;;;5.97;4.57;;;;;;;25.26;37.38;101738.84;2618401;47;20113;-80
2021/08/13 10:28:20;;;;;;;5.90;4.10;;;;;;;25.29;37.43;101735.59;2646390;36;21026;-78
2021/08/13 10:30:58;;;;;;;7.70;4.80;;;;;;;25.36;37.35;101726.16;2617799;54;20033;-82
2021/08/13 10:33:29;;;;;;;5.75;3.75;;;;;;;25.42;37.04;101730.06;2646484;36;20081;-79
2021/08/13 10:36:00;;;;;;;5.53;3.75;;;;;;;25.51;36.43;101731.63;2618141;39;20545;-79
2021/08/13 10:38:34;;;;;;;5.82;4.10;;;;;;;25.53;36.66;101733.09;2646472;36;20121;-80
2021/08/13 10:41:11;;;;;;;5.95;3.63;;;;;;;25.60;35.60;101724.75;2618446;54;20023;-80
2021/08/13 10:43:45;;;;;;;4.47;3.38;;;;;;;25.63;35.74;101732.72;2646515;36;20031;-79
2021/08/13 10:46:21;;;;;;;5.40;3.60;;;;;;;25.65;35.89;101733.38;2617650;47;20030;-80
2021/08/13 10:48:57;;;;;;;4.63;3.03;;;;;;;25.69;35.25;101734.66;2646248;36;20041;-79
2021/08/13 10:51:29;;;;;;;4.85;3.30;;;;;;;25.71;35.24;101740.06;2615194;51;20542;-77
2021/08/13 10:54:09;;;;;;;4.60;2.90;;;;;;;25.74;34.76;101740.53;2644104;36;20078;-76
2021/08/13 10:56:45;;;;;;;6.53;3.20;;;;;;;25.75;34.82;101735.78;2615555;47;20058;-78
2021/08/13 10:59:49;;;;;;;4.15;2.60;;;;;;;25.74;35.27;101729.31;2644730;36;20034;-79
2021/08/13 11:02:22;;;;;;;4.68;2.90;;;;;;;25.72;35.64;101724.97;2644379;36;20590;-81
2021/08/13 11:04:58;;;;;;;4.75;2.88;;;;;;;25.82;35.29;101740.34;2614989;47;21064;-79
2021/08/13 11:08:02;;;;;;;3.92;2.67;;;;;;;25.84;35.08;101746.63;2644705;36;20592;-79
2021/08/13 11:10:57;;;;;;;4.25;2.55;;;;;;;25.87;35.23;101740.56;2614688;47;20053;-78
2021/08/13 11:13:38;;;;;;;3.42;2.20;;;;;;;25.95;34.63;101742.31;2644495;36;20048;-75
2021/08/13 11:16:39;;;;;;;3.33;2.20;;;;;;;25.96;34.19;101738.44;2614866;39;20290;-76
2021/08/13 11:19:14;;;;;;;3.95;2.13;;;;;;;25.98;34.71;101741.03;2644510;36;20027;-77
2021/08/13 11:21:48;;;;;;;4.93;2.20;;;;;;;25.99;34.86;101739.94;2615121;47;20121;-76
2021/08/13 11:24:21;;;;;;;4.03;2.25;;;;;;;26.04;34.38;101742.97;2644908;36;20035;-76
2021/08/13 11:27:14;;;;;;;4.35;2.10;;;;;;;26.04;33.67;101746.63;2614788;51;20042;-77
2021/08/13 11:29:48;;;;;;;3.70;2.10;;;;;;;26.04;34.05;101737.34;2543494;54;2004190;-78
2021/08/13 11:32:39;;;;;;;3.10;1.98;;;;;;;26.04;33.95;101749.44;2679304;36;20541;-79
2021/08/13 11:35:11;;;;;;;3.58;1.90;;;;;;;26.07;33.99;101745.34;2615480;47;20035;-77
2021/08/13 11:37:54;;;;;;;3.70;2.03;;;;;;;26.07;34.11;101743.41;2677994;36;20035;-76
2021/08/13 11:40:53;;;;;;;3.40;2.00;;;;;;;26.08;34.03;101749.88;2614614;54;20038;-76
2021/08/13 11:43:28;;;;;;;3.83;2.10;;;;;;;26.10;33.77;101751.38;2643073;36;20043;-77
2021/08/13 11:45:59;;;;;;;4.45;1.90;;;;;;;26.16;33.97;101758.97;2613752;47;20447;-75
2021/08/13 11:48:34;;;;;;;2.95;1.88;;;;;;;26.18;33.51;101770.84;2642765;36;20441;-76
2021/08/13 11:51:10;;;;;;;3.92;1.75;;;;;;;26.21;33.68;101756.38;2615058;54;20161;-78